CDT,Max TemperatureF,Mean TemperatureF,Min TemperatureF,Max Dew PointF,MeanDew PointF,Min DewpointF,Max Humidity, Mean Humidity, Min Humidity, Max Sea Level PressureIn, Mean Sea Level PressureIn, Min Sea Level PressureIn, Max VisibilityMiles, Mean VisibilityMiles, Min VisibilityMiles, Max Wind SpeedMPH, Mean Wind SpeedMPH, Max Gust SpeedMPH,PrecipitationIn, CloudCover, Events, WindDirDegrees
2013-4-1,46,38,30,25,14,-2,64,41,13,30.28,30.19,30.03,10,10,10,16,11,24,0.00,2,,332
2013-4-2,50,36,21,21,10,-15,74,40,8,30.35,30.31,30.27,10,10,10,13,3,20,0.00,0,,338
2013-4-3,53,40,28,25,9,-11,65,34,7,30.43,30.35,30.27,10,10,10,13,5,17,0.00,0,,77
2013-4-4,64,48,32,28,13,-31,70,35,4,30.26,30.13,30.03,10,10,10,10,2,,0.00,0,,266
2013-4-5,64,50,37,34,23,1,70,38,9,30.20,30.10,29.97,10,10,7,14,6,,0.00,0,,76
2013-4-6,71,61,51,46,34,27,51,36,20,29.97,29.78,29.64,10,10,10,28,13,37,0.00,2,Rain,190
2013-4-7,77,60,44,45,36,21,76,45,13,29.95,29.85,29.73,10,9,4,14,5,,0.00,1,Rain,94
2013-4-8,73,65,57,57,53,46,82,68,53,29.83,29.75,29.57,10,10,4,23,8,31,0.89,5,Rain,191
2013-4-9,78,70,62,59,56,54,73,60,44,29.82,29.78,29.76,10,10,10,22,8,31,0.00,6,,165
2013-4-10,66,56,46,57,42,37,82,74,67,29.94,29.78,29.62,10,8,2,22,9,31,1.44,7,Rain,44
2013-4-11,48,44,39,41,35,28,76,71,61,29.69,29.66,29.63,10,8,2,21,9,25,0.05,8,,245
2013-4-12,48,44,39,32,30,28,70,63,53,29.96,29.79,29.65,10,10,10,21,13,26,0.00,8,,264
2013-4-13,55,46,37,36,27,21,65,49,33,30.03,29.96,29.89,10,10,10,18,11,24,0.00,5,,260
2013-4-14,80,64,48,54,38,21,77,45,11,29.88,29.67,29.51,10,10,7,23,13,32,0.29,4,Rain,155
2013-4-15,60,52,44,50,42,34,77,64,45,30.00,29.85,29.70,10,10,10,14,5,20,0.00,6,Rain,282
2013-4-16,51,45,39,36,32,30,76,58,50,30.21,30.14,30.00,10,10,10,15,6,20,0.01,7,,22
2013-4-17,62,53,44,54,41,36,82,71,54,30.18,29.96,29.61,10,8,1,30,13,44,1.86,8,Rain,74
2013-4-18,64,52,39,55,45,28,82,74,61,29.74,29.59,29.45,10,8,1,26,11,33,2.12,8,Rain,195
2013-4-19,48,42,35,28,26,19,65,56,37,30.06,29.83,29.70,10,10,10,29,18,34,0.00,7,,282
2013-4-20,51,40,30,30,24,16,75,52,27,30.33,30.23,30.07,10,10,10,9,4,,0.00,1,,95
2013-4-21,66,54,42,41,35,28,61,48,34,30.37,30.29,30.21,10,10,10,21,12,30,0.00,3,,138
2013-4-22,71,60,50,46,33,19,67,38,14,30.23,30.11,29.97,10,10,10,16,8,24,0.00,2,Rain,160
2013-4-23,57,48,39,45,36,32,81,74,63,30.07,30.01,29.96,10,8,2,17,7,23,0.52,8,Rain,340
2013-4-24,53,44,35,32,26,18,75,51,24,30.17,30.13,30.05,10,10,7,15,10,21,0.00,2,Rain,281
2013-4-25,62,50,39,34,27,19,70,42,20,30.32,30.25,30.15,10,10,10,18,9,26,0.00,1,,263
2013-4-26,66,58,50,45,39,28,67,50,37,30.30,30.25,30.22,10,10,10,22,10,30,0.00,4,,180
2013-4-27,57,52,46,46,44,39,77,71,63,30.27,30.13,29.99,10,8,1,12,5,,0.11,6,Rain,123
2013-4-28,69,60,51,52,47,45,77,64,46,29.99,29.91,29.84,10,8,2,12,3,16,0.00,4,,228
2013-4-29,84,68,51,59,52,43,76,56,35,29.88,29.77,29.65,10,10,7,22,9,28,0.00,0,,177
2013-4-30,86,76,66,57,49,34,68,42,15,29.89,29.78,29.69,10,10,10,22,14,31,0.00,0,,195